Date,TemperatureHighF,TemperatureAvgF,TemperatureLowF,DewpointHighF,DewpointAvgF,DewpointLowF,HumidityHigh,HumidityAvg,HumidityLow,PressureMaxIn,PressureMinIn,WindSpeedMaxMPH,WindSpeedAvgMPH,GustSpeedMaxMPH,PrecipitationSumIn
2013-1-1,24,16,7,16,8,4,85,72,51,30.28,30.14,12,6,15,0.00
2013-1-2,29,17,6,17,10,3,87,76,53,30.26,30.14,6,3,11,0.00
2013-1-3,32,25,15,26,19,11,89,79,60,30.33,30.15,15,6,17,0.00
2013-1-4,34,22,10,23,16,7,88,80,60,30.32,30.23,14,6,19,0.00
2013-1-5,34,28,19,32,25,16,94,88,74,30.28,29.98,6,3,10,0.01
2013-1-6,35,24,14,32,20,12,93,85,72,30.37,29.97,13,6,18,0.00
2013-1-7,39,27,13,28,22,10,93,82,64,30.37,30.14,9,4,17,0.00
2013-1-8,46,34,25,33,28,22,89,79,57,30.17,30.06,8,4,10,0.00
2013-1-9,50,36,22,35,28,19,91,74,40,30.50,30.05,15,5,17,0.00
2013-1-10,45,33,20,44,29,18,98,85,55,30.50,29.83,5,2,10,0.58
2013-1-11,54,50,45,50,48,44,98,93,86,29.83,29.64,9,5,15,0.35
2013-1-12,50,40,28,48,36,26,92,87,79,29.98,29.72,11,6,13,0.00
2013-1-13,28,20,12,26,16,8,93,86,80,30.31,29.89,7,5,9,0.00
2013-1-14,14,12,11,12,9,7,94,88,83,30.47,30.30,3,1,3,0.00
2013-1-15,28,18,9,20,14,6,94,86,67,30.47,30.15,3,0,4,0.00
2013-1-16,35,26,13,29,21,11,94,84,74,30.16,29.89,9,3,15,0.00
2013-1-17,33,26,19,29,21,15,93,80,63,30.44,30.09,13,5,17,0.00
2013-1-18,42,31,17,32,25,14,90,78,65,30.46,29.97,11,5,16,0.01
2013-1-19,49,40,27,39,32,16,82,75,60,30.02,29.77,19,8,23,0.00
2013-1-20,27,17,12,15,8,5,78,69,58,30.34,30.02,19,8,24,0.00
2013-1-21,13,8,2,8,0,-5,86,69,51,30.36,30.21,15,10,18,0.00
2013-1-22,12,6,-1,1,-2,-7,83,68,56,30.47,30.34,10,5,14,0.00
2013-1-23,24,16,9,13,6,0,80,66,56,30.40,30.14,18,4,27,0.00
2013-1-24,23,14,4,9,3,-4,72,60,43,30.66,30.37,15,6,17,0.00
2013-1-25,33,23,17,22,15,7,88,71,57,30.37,30.00,12,5,16,0.00
2013-1-26,28,19,8,15,10,4,87,69,50,30.42,30.23,7,2,10,0.00
2013-1-27,40,30,23,39,25,14,97,83,64,30.39,29.91,7,3,11,0.19
2013-1-28,54,46,40,53,45,39,99,97,93,29.94,29.76,7,3,12,0.04
2013-1-29,63,57,50,60,56,50,99,95,88,29.76,29.36,12,5,15,1.23
2013-1-30,51,34,18,50,32,14,99,93,81,29.72,29.23,16,8,22,0.43
2013-1-31,18,12,2,15,7,-4,87,79,73,30.28,29.73,16,12,24,0.00
2013-2-1,19,8,-1,15,2,-6,86,74,67,30.45,30.22,12,7,18,0.00
2013-2-2,26,17,7,22,14,3,91,86,77,30.23,30.04,15,5,17,0.00
2013-2-3,24,20,10,18,15,7,94,83,68,30.11,29.99,13,4,16,0.00
2013-2-4,32,25,15,26,21,12,90,84,79,30.04,29.83,11,5,12,0.00
2013-2-5,35,26,13,30,22,10,91,87,81,30.11,29.83,12,4,20,0.00
2013-2-6,42,32,20,32,27,18,94,81,66,30.23,30.08,6,2,12,0.00
2013-2-7,35,33,31,34,31,29,97,93,84,30.09,29.85,12,3,15,0.77
2013-2-8,31,26,23,29,23,20,93,89,87,30.41,30.00,16,9,19,0.00
2013-2-9,35,30,25,30,26,22,92,84,76,30.40,30.06,8,3,10,0.00
2013-2-10,47,40,33,45,38,28,96,91,72,30.07,29.49,17,7,29,0.30
2013-2-11,42,33,29,33,26,23,81,75,70,30.09,29.56,24,14,35,0.00
2013-2-12,32,27,21,25,23,19,96,83,73,30.14,29.94,10,4,11,0.00
2013-2-13,44,32,24,35,28,22,95,85,64,29.94,29.75,9,2,12,0.00
2013-2-14,40,36,32,32,30,27,92,81,68,30.00,29.68,13,6,19,0.00
2013-2-15,32,27,21,29,19,13,90,73,49,30.22,30.00,13,8,16,0.00
2013-2-16,25,18,12,14,10,6,80,69,54,30.23,30.15,11,8,14,0.00
2013-2-17,34,30,28,22,20,13,77,65,50,30.21,29.98,5,3,10,0.00
2013-2-18,54,40,24,46,33,20,94,79,65,29.97,29.45,21,9,24,0.22
2013-2-19,24,15,10,20,10,4,85,77,70,30.27,29.67,20,14,25,0.00
2013-2-20,22,14,5,16,8,0,89,78,67,30.42,30.27,10,6,14,0.00
2013-2-21,30,22,10,24,18,7,93,85,78,30.40,29.94,13,5,19,0.00
2013-2-22,33,28,25,31,25,21,95,89,78,29.97,29.80,13,6,16,0.04
2013-2-23,28,23,18,21,18,14,88,81,74,30.01,29.95,11,6,12,0.00
2013-2-24,37,25,10,27,20,8,93,81,64,30.16,30.00,4,1,5,0.06
2013-2-25,42,32,20,33,27,18,95,84,68,30.17,29.90,12,4,15,0.02
2013-2-26,34,32,31,31,30,27,97,90,76,29.90,29.48,21,13,26,0.02
2013-2-27,32,31,29,30,29,28,97,94,89,29.76,29.54,10,8,14,0.03
2013-2-28,34,32,29,31,29,25,93,90,84,30.08,29.76,11,9,15,0.06
2013-3-1,29,26,24,25,23,20,90,86,82,30.21,30.07,17,12,21,0.00
2013-3-2,26,22,13,21,17,10,87,81,70,30.23,30.18,13,7,16,0.00
2013-3-3,31,25,11,19,15,8,90,69,49,30.20,30.11,4,1,6,0.00
2013-3-4,33,29,21,28,24,16,85,80,75,30.13,29.95,8,4,14,0.00
2013-3-5,32,30,26,31,29,25,97,96,91,29.99,29.80,17,8,22,0.03
2013-3-6,30,27,25,25,24,22,96,86,82,30.34,30.04,17,8,24,0.00
2013-3-7,38,26,14,27,21,12,94,83,61,30.44,30.39,4,1,8,0.14
2013-3-8,40,32,15,31,26,13,96,80,70,30.49,30.37,3,2,7,0.10
2013-3-9,42,40,36,37,35,31,86,82,77,30.14,29.84,5,3,8,0.05
2013-3-10,49,46,37,47,44,35,98,94,87,29.86,29.55,10,3,10,0.81
2013-3-11,43,35,31,42,33,27,98,93,87,29.86,29.58,11,7,16,0.05
2013-3-12,37,32,26,30,27,21,92,81,72,30.06,29.86,15,10,19,0.00
2013-3-13,33,27,23,23,20,16,85,74,52,30.36,30.09,14,8,19,0.00
2013-3-14,36,32,26,32,28,23,93,84,69,30.34,30.16,4,2,8,0.02
2013-3-15,46,40,28,41,37,26,95,89,79,29.98,29.73,8,2,10,0.00
2013-3-16,35,32,28,32,29,25,97,88,81,30.12,29.86,13,8,16,0.00
2013-3-17,36,32,28,28,25,22,87,75,67,30.20,29.95,11,7,17,0.00
2013-3-18,36,30,23,34,26,15,95,87,73,29.95,29.66,15,8,23,0.01
2013-3-19,36,28,18,22,17,10,75,62,48,30.15,29.89,16,11,21,0.00
2013-3-20,26,20,13,19,11,5,78,67,54,30.17,30.09,15,11,20,0.00
2013-3-21,33,27,13,20,16,8,91,64,48,30.10,30.03,8,4,11,0.00
2013-3-22,42,30,16,25,20,14,93,68,43,30.10,30.02,5,1,8,0.00
2013-3-23,44,40,29,30,27,24,84,60,50,30.07,29.98,10,6,11,0.00
2013-3-24,34,32,29,29,28,27,96,84,78,29.78,29.66,17,13,21,0.00
2013-3-25,35,32,26,30,27,23,87,83,79,30.09,29.79,16,12,23,0.00
2013-3-26,33,32,31,27,26,25,84,81,72,30.28,30.13,6,4,8,0.00
2013-3-27,43,37,26,29,26,21,92,64,47,30.35,30.29,9,4,12,0.00
2013-3-28,51,42,24,34,29,23,95,64,43,30.38,30.28,4,1,7,0.00
2013-3-29,55,51,33,39,34,26,92,53,43,30.32,30.21,5,2,7,0.00
2013-3-30,58,49,30,44,38,25,91,67,50,30.23,29.86,8,4,13,0.00
2013-3-31,60,48,37,44,38,27,95,68,40,29.91,29.74,16,9,23,0.00
2013-4-1,41,34,28,28,20,16,77,59,40,30.22,29.92,12,8,19,0.00
2013-4-2,45,33,19,22,17,13,89,56,27,30.32,30.21,11,5,14,0.00
2013-4-3,50,39,22,22,18,14,84,46,28,30.47,30.33,7,2,13,0.00
2013-4-4,59,52,34,26,24,22,68,35,24,30.22,29.99,8,4,12,0.00
2013-4-5,56,43,28,30,24,19,88,48,26,30.20,30.08,10,5,12,0.00
2013-4-6,70,55,34,48,36,23,79,52,29,30.11,29.62,13,6,20,0.09
2013-4-7,67,54,44,44,42,37,87,64,42,29.94,29.87,9,4,17,0.00
2013-4-8,64,29,56,56,-25,-100,93,42,73,29.81,29.61,16,-507,20,0.55
2013-4-9,-200,0,200,-100,-100,-100,0,0,100,29.84,29.75,0,-999,0,0.00
2013-7-11,81,75,60,59,57,54,94,56,41,30.05,30.02,3,1,4,0.00
2013-7-12,84,73,64,62,56,50,85,59,34,30.14,30.05,4,1,7,0.00
2013-7-13,84,71,63,64,62,60,90,74,49,30.12,30.06,2,1,4,0.00
2013-7-14,87,84,80,73,71,69,71,66,61,30.13,30.12,4,2,8,0.00
2013-7-15,89,85,78,77,75,74,88,73,66,30.23,30.16,3,1,4,0.10
2013-7-16,91,85,78,77,75,72,81,73,59,30.28,30.22,3,1,4,0.00
2013-7-17,93,85,73,76,74,71,94,70,52,30.29,30.15,6,1,6,0.00
2013-7-18,94,90,78,79,76,74,88,64,53,30.12,29.99,8,2,8,0.00
2013-7-19,93,88,82,77,74,70,77,64,49,29.90,29.81,16,4,16,0.00
2013-7-20,86,81,75,70,68,62,81,66,46,29.85,29.79,9,3,9,0.06
2013-7-21,83,80,75,73,72,71,93,78,67,29.88,29.84,2,1,4,0.00
2013-7-22,86,80,73,72,70,68,92,75,58,29.81,29.77,5,2,7,0.00
2013-7-23,78,75,72,71,68,66,85,80,71,29.81,29.77,6,6,7,0.02
2013-7-24,75,67,56,60,56,52,93,69,49,30.04,29.94,8,3,14,0.00
2013-7-25,81,67,49,62,56,48,97,71,47,30.11,30.02,3,1,10,0.00
2013-7-26,74,67,61,68,62,57,92,85,76,30.03,29.88,5,1,13,0.01
2013-7-27,67,60,54,57,53,47,94,78,57,29.94,29.88,10,4,19,0.00
2013-7-28,71,60,50,55,51,47,95,72,48,30.03,29.90,12,4,20,0.00
2013-7-29,78,63,48,61,54,47,98,76,47,30.15,30.04,6,1,12,0.00
2013-7-30,68,63,56,65,60,54,95,91,84,30.16,30.06,2,0,8,0.20
2013-7-31,75,70,65,68,66,64,98,88,78,30.00,29.94,5,2,8,0.08
2013-8-1,79,69,59,65,60,55,99,76,45,30.00,29.93,10,3,20,0.00
2013-8-2,85,74,63,72,66,59,97,78,59,29.93,29.83,10,2,18,1.00
2013-8-3,79,72,59,66,61,55,97,69,49,30.10,30.01,6,3,11,0.01
2013-8-4,79,68,55,64,58,51,98,72,39,30.17,30.07,5,1,9,0.00
2013-8-5,75,67,56,67,62,55,96,83,68,30.10,29.85,3,0,11,0.06
2013-8-6,84,74,63,76,70,62,98,86,70,29.88,29.80,4,1,9,0.00
2013-8-7,84,76,69,77,71,66,96,86,73,29.91,29.78,10,2,25,0.72
2013-8-8,78,70,61,68,64,58,98,83,63,29.98,29.91,8,3,15,0.00
2013-8-9,81,70,56,69,63,55,98,80,58,30.03,29.96,4,1,9,0.00
2013-8-10,79,70,58,67,62,57,96,79,55,30.11,30.03,5,1,11,0.00
2013-8-11,84,69,52,68,62,52,98,79,54,30.13,30.01,3,0,9,0.00
2013-8-12,82,72,62,72,67,61,96,83,65,30.04,29.85,7,2,13,0.00
2013-8-13,71,64,53,64,57,49,98,78,51,30.12,29.91,8,3,15,0.00
2013-8-14,74,65,51,58,54,50,98,69,46,30.22,30.13,4,1,11,0.00
2013-8-15,75,61,47,62,55,46,98,81,50,30.18,30.09,3,0,8,0.00
2013-8-16,71,57,50,62,55,49,98,94,71,30.16,30.12,3,0,4,0.00
2013-8-17,61,56,53,57,54,51,95,92,89,30.17,30.14,0,0,1,0.00
2013-8-20,87,82,69,72,67,64,90,63,47,30.10,30.00,3,1,9,0.00
2013-8-21,89,81,69,73,69,66,89,69,51,30.07,29.96,3,1,12,0.00
2013-8-22,74,70,65,70,68,64,98,91,83,30.13,29.98,9,1,16,1.62
2013-8-23,81,70,60,69,63,56,99,83,52,30.14,30.07,8,2,13,0.01
2013-8-24,87,72,55,71,63,54,98,77,54,30.23,30.14,2,1,9,0.00
2013-8-25,88,75,64,74,66,58,93,73,56,30.24,30.12,3,1,8,0.00
2013-8-26,84,70,62,75,66,61,95,87,70,30.15,30.11,5,1,7,0.00
2013-8-27,92,85,75,78,74,68,91,71,57,29.98,29.85,4,2,13,0.00
2013-8-28,89,79,70,81,72,65,96,81,71,29.99,29.84,7,2,10,0.00
2013-8-29,87,74,67,75,70,66,98,89,63,30.05,29.98,5,1,9,0.00
2013-8-30,97,84,71,80,72,65,91,69,54,29.88,29.74,14,3,21,0.04
2013-8-31,84,74,67,76,70,65,96,87,75,29.81,29.72,8,2,13,0.00
2013-9-1,87,74,60,75,68,60,99,84,64,29.79,29.71,7,1,12,0.00
2013-9-2,78,68,57,68,62,55,96,82,60,29.97,29.79,6,2,12,0.00
2013-9-3,75,63,52,64,57,52,98,82,55,30.09,29.97,4,1,15,0.00
2013-9-4,82,65,49,66,58,48,99,81,44,30.14,30.04,5,1,10,0.00
2013-9-5,79,67,56,70,61,52,98,82,60,30.19,30.10,7,3,12,0.00
2013-9-6,88,71,55,70,62,52,95,74,49,30.19,29.99,2,1,9,0.00
2013-9-7,88,73,62,73,65,60,95,79,49,30.00,29.86,3,1,10,0.02
2013-9-8,84,75,68,72,69,66,95,83,64,29.96,29.87,8,2,16,0.00
2013-9-9,96,80,68,77,72,67,98,78,48,29.91,29.80,3,1,8,0.00
2013-9-10,95,81,68,73,68,63,92,68,37,30.00,29.87,9,2,22,0.00
2013-9-11,90,78,68,72,68,65,92,73,50,30.03,29.96,8,2,15,0.06
2013-9-12,81,71,55,69,60,50,96,72,36,30.07,29.94,10,4,21,0.00
2013-9-13,69,57,44,52,47,41,96,72,39,30.18,30.06,7,2,14,0.00
2013-9-14,74,55,37,50,44,36,98,72,34,30.20,30.03,3,1,11,0.00
2013-9-15,65,58,51,60,53,45,97,84,68,30.14,29.96,5,2,11,0.15
2013-9-16,69,59,49,56,52,46,98,78,47,30.33,30.14,8,5,15,0.00
2013-9-17,74,65,49,59,55,48,97,72,54,30.30,30.09,3,1,9,0.00
2013-9-18,86,70,57,74,62,54,89,77,57,30.09,29.88,4,1,11,0.05
2013-9-19,93,84,72,70,68,65,80,59,43,29.84,29.74,7,3,12,0.00
2013-9-20,73,66,55,68,61,52,97,84,58,29.85,29.75,9,4,17,0.10
2013-9-21,70,57,45,53,49,44,95,77,45,29.95,29.83,8,3,18,0.00
2013-9-22,71,53,38,51,44,37,98,77,42,30.05,29.95,4,1,12,0.00
2013-9-27,67,62,56,51,50,50,82,66,54,30.04,30.01,0,0,3,0.00
2013-9-28,85,70,54,66,57,50,95,68,38,30.05,29.87,7,2,18,0.10
2013-9-29,71,59,43,61,50,41,98,76,35,30.06,29.93,7,3,18,0.20
2013-9-30,78,59,38,57,48,37,98,72,33,30.01,29.86,3,1,8,0.00
2013-10-1,75,64,58,67,61,57,98,92,72,29.96,29.89,3,2,11,0.00
2013-10-3,82,72,64,72,67,62,98,85,57,29.93,29.80,4,1,12,1.01
2013-10-4,85,72,62,72,66,61,98,83,58,29.95,29.87,3,1,11,0.01
2013-10-5,78,71,68,73,68,67,97,92,80,29.91,29.86,3,1,7,0.03
2013-10-6,60,52,46,46,42,39,89,69,53,29.80,29.72,8,4,18,0.08
2013-10-7,70,54,42,49,45,40,97,75,39,30.08,29.79,8,4,15,0.00
2013-10-8,78,60,43,55,48,42,98,69,33,30.18,30.08,2,1,10,0.00
2013-10-9,75,57,41,52,46,40,98,71,31,30.23,30.10,3,0,10,0.00
2013-10-10,77,58,40,59,50,38,98,78,46,30.16,30.02,2,0,8,0.00
2013-10-11,79,65,55,62,56,52,91,73,47,30.04,29.90,4,1,11,0.00
2013-10-12,70,61,44,64,54,42,94,79,46,30.18,29.92,7,2,14,0.20
2013-10-13,65,50,37,45,38,33,98,70,30,30.40,30.19,8,2,21,0.00
2013-10-14,67,49,32,47,39,32,98,73,34,30.40,30.11,6,1,16,0.00
2013-10-15,69,58,48,63,51,42,95,78,63,30.11,29.77,9,2,18,0.03
2013-10-16,54,50,43,46,44,40,90,80,71,29.97,29.88,9,5,17,0.00
2013-10-17,58,48,39,47,43,37,96,84,49,29.95,29.84,9,2,18,0.15
2013-10-18,50,44,39,42,39,37,96,83,61,30.00,29.86,9,3,16,0.01
2013-10-19,45,42,39,41,39,37,92,90,80,29.96,29.89,5,1,8,0.00
2013-10-21,48,42,31,36,30,25,84,61,45,30.00,29.92,11,6,22,0.01
2013-10-22,41,38,34,36,34,31,95,86,77,30.00,29.90,7,2,8,0.33
2013-10-23,46,40,33,35,31,28,93,70,54,30.07,30.02,8,5,19,0.01
2013-10-24,42,37,30,34,28,24,93,72,50,30.34,30.06,10,5,17,0.00
2013-10-25,52,38,25,33,27,22,90,68,40,30.45,30.11,8,3,18,0.00
2013-10-26,43,40,38,33,30,29,71,66,59,30.11,29.92,5,3,13,0.00
2013-10-28,43,42,41,39,39,38,88,87,85,30.34,30.32,8,6,13,0.00
2013-10-29,41,37,33,38,35,32,97,93,88,30.34,30.30,6,2,12,0.00
2013-10-31,63,62,61,62,61,60,97,96,95,29.58,29.33,4,2,11,0.86
2013-11-3,54,44,26,42,36,25,99,76,52,30.32,30.21,3,1,10,0.01
2013-11-4,57,49,40,46,41,36,84,74,59,30.24,30.08,7,2,18,0.00
2013-11-5,55,52,50,52,49,46,95,88,80,30.25,29.95,6,2,17,0.21
2013-11-6,57,46,34,56,44,29,96,91,80,30.20,29.81,13,5,23,0.53
2013-11-7,45,34,27,38,30,26,94,86,70,30.29,30.20,12,3,20,0.00
2013-11-8,50,39,25,36,31,24,96,73,45,30.36,29.97,6,2,18,0.01
2013-11-9,60,50,41,43,39,36,86,66,47,30.11,29.90,14,7,25,0.00
2013-11-13,39,34,30,24,23,20,73,63,48,30.53,30.21,7,5,15,0.00
2013-11-14,51,38,29,29,26,22,74,61,40,30.21,29.97,8,4,18,0.00
2013-11-15,47,40,34,39,32,28,78,72,59,30.01,29.95,5,2,12,0.00
2013-11-17,60,49,43,57,44,38,92,82,76,29.80,29.18,20,13,42,0.65
2013-11-18,45,39,29,39,32,26,88,76,55,30.27,29.80,15,8,29,0.00
2013-11-19,44,33,22,32,28,20,96,82,59,30.38,30.26,5,1,14,0.00
2013-11-20,43,36,28,38,32,26,94,85,67,30.29,30.09,5,2,11,0.19
2013-11-21,49,45,41,46,43,38,98,92,85,30.21,30.10,5,1,8,0.14
2013-11-22,42,35,26,41,32,23,95,90,80,30.51,30.20,13,7,20,0.02
2013-11-25,32,30,25,26,23,18,88,76,63,30.27,30.12,8,4,17,0.00
2013-11-26,36,28,16,28,21,8,89,76,59,30.22,30.06,17,7,25,0.00
2013-11-27,28,18,12,14,10,6,85,71,53,30.31,30.20,11,6,20,0.00
2013-11-28,36,25,16,20,16,13,90,70,51,30.53,30.22,7,3,14,0.00
2013-11-29,37,24,10,23,17,8,94,76,50,30.66,30.41,3,1,8,0.00
2013-11-30,51,38,29,34,29,23,87,71,51,30.41,30.07,6,3,12,0.00
2013-12-1,45,34,26,35,30,24,96,85,63,30.13,29.98,5,1,9,0.00
2013-12-2,43,37,31,35,32,29,95,85,72,29.98,29.75,4,1,12,0.03
2013-12-3,49,46,40,48,46,39,98,97,95,29.71,29.63,5,2,11,0.00
2013-12-4,56,49,34,55,47,32,98,95,87,29.76,29.48,15,4,22,0.01
2013-12-5,34,24,20,32,18,13,91,79,70,30.31,29.76,13,8,23,0.00
2013-12-6,20,18,16,14,12,10,80,77,76,30.42,30.28,9,7,16,0.00
2013-12-7,10,9,8,6,5,4,85,83,82,30.63,30.61,0,0,13,0.00
2013-12-8,12,12,12,8,8,8,83,82,82,30.57,30.56,7,6,8,0.00
2013-12-9,16,8,-1,9,1,-5,80,74,70,30.30,30.24,11,5,20,0.00
2013-12-10,23,13,-4,14,6,-8,85,74,61,30.36,30.10,15,5,25,0.00
2013-12-11,20,12,-2,15,7,-8,92,79,69,30.65,30.31,13,5,18,0.00
2013-12-12,24,10,-4,16,5,-8,91,78,63,30.62,30.26,10,2,18,0.00
2013-12-13,36,24,10,29,20,7,96,85,64,30.26,30.07,8,2,12,0.00
2013-12-14,31,28,17,29,26,14,97,94,87,30.08,29.91,14,8,19,0.00
2013-12-15,14,14,13,10,9,8,90,82,77,30.17,30.11,6,2,14,0.00
2013-12-16,22,16,7,16,12,5,94,88,76,30.18,30.05,6,2,8,0.00
2013-12-17,33,25,18,28,21,14,95,86,69,30.18,30.03,12,7,21,0.00
2013-12-18,33,23,6,29,16,4,92,77,55,30.21,29.88,10,4,21,0.00
2013-12-19,45,38,32,38,35,30,97,89,76,29.92,29.77,3,1,10,0.12
2013-12-20,36,33,30,36,33,30,98,98,97,29.83,29.72,9,4,14,0.17
2013-12-21,32,29,28,31,28,27,98,95,92,29.86,29.75,8,4,11,0.00
2013-12-22,30,27,21,27,25,19,93,90,89,30.19,29.83,9,7,15,0.00
2013-12-23,22,9,0,19,5,-4,91,84,78,30.55,30.19,12,8,18,0.00
2013-12-24,19,7,-4,14,2,-8,84,80,72,30.65,30.38,7,3,14,0.00
2013-12-25,28,24,19,26,21,14,94,87,78,30.38,30.17,12,5,18,0.00
2013-12-26,36,27,14,31,22,12,91,82,72,30.33,30.18,11,4,19,0.01
2013-12-27,42,33,23,35,30,22,97,87,76,30.32,30.13,6,2,12,0.00
2013-12-28,50,39,32,40,34,29,91,81,64,30.13,29.86,6,3,17,0.00
2013-12-29,36,28,10,32,26,6,96,89,83,30.25,29.79,14,8,22,0.00
2013-12-30,13,7,1,9,2,-4,90,81,72,30.38,30.25,8,3,15,0.00
2013-12-31,16,11,-4,12,7,-6,92,85,75,30.44,30.30,10,4,14,0.00
2014-1-1,23,19,14,20,16,11,93,89,82,30.30,30.17,14,9,19,0.00
2014-1-2,16,11,2,13,8,-2,91,85,79,30.47,30.15,17,11,23,0.00